• Join FlightAware (Why Join?)
  • Login
  • US Flag 
08:46AM EDT


 

Airport Tracker/Info


-or-


 

Live Flight TrackerFlight Track Log ✈ N509QS ✈ 13-Jul-2013 ✈ KTEB - KHPN

Flight Track Log - Related Links

Times and Time Zones

All times are in EDT time to prevent confusion due to time zone crossing. See the N509QS flight status page for this flight to view local times or setup timezone preferences in your user account.

Time Position Orientation Groundspeed Altitude Reporting Facility
EDT Latitude Longitude Course Direction KTS MPH feet Rate Location/Type
12:59PM 40.9000 -74.0333 304° West 207 238 1,700  Level New York TRACON
01:00PM 40.9333 -74.1000 304° West 243 280 1,700 600 Level New York TRACON
01:01PM 40.9500 -74.1833 285° West 250 288 3,000 660 Climbing New York TRACON
01:02PM 41.0167 -74.2167 339° North 267 307 3,100  Climbing New York TRACON
01:03PM 41.0833 -74.1833 21° North 275 316 3,000 -60 Descending New York TRACON
01:04PM 41.1500 -74.1333 29° Northeast 280 322 3,000  Level New York TRACON
01:05PM 41.1833 -74.0500 62° Northeast 269 310 3,000  Level New York TRACON
01:06PM 41.2167 -73.9833 56° Northeast 228 262 3,000  Level New York TRACON
01:07PM 41.2833 -73.9667 11° North 208 239 3,000  Level New York TRACON
01:08PM 41.3333 -73.9500 14° North 210 242 3,000  Level New York TRACON
01:09PM 41.3167 -73.9000 114° Southeast 154 177 3,000  Level New York TRACON
01:10PM 41.2833 -73.8667 143° Southeast 153 176 3,000  Level New York TRACON
01:11PM 41.2333 -73.8333 153° Southeast 157 181 3,000  Level New York TRACON
01:12PM 41.2000 -73.8167 159° South 153 176 3,000 -360 Level New York TRACON
01:13PM 41.1667 -73.7833 143° Southeast 160 184 2,300 -780 Descending New York TRACON
01:14PM 41.1167 -73.7500 153° Southeast 155 178 1,500 -720 Descending New York TRACON
01:15PM 41.1000 -73.7333 143° Southeast 130 150 900 -600 Descending New York TRACON
01:17PM 41.0667 -73.7000 207° Southwest  Level FlightAware Approximate
01:24PM 41.0669 -73.7076 207° Southwest  Level Estimated
01:25PM 41.0667 -73.7000 207° Southwest  Level FlightAware Approximate
01:26PM 41.0669 -73.7076 207° Southwest  Level Estimated
01:27PM 41.0667 -73.7000 207° Southwest  Level FlightAware Approximate
01:28PM 41.0669 -73.7076 207° Southwest  Level Estimated
01:29PM 41.0667 -73.7000 207° Southwest  Level FlightAware Approximate
01:30PM 41.0669 -73.7076 207° Southwest  Level Estimated